Time;durP1;ratioP1;P1;durP2;ratioP2;P2;SDS_P1;SDS_P2;PMS_P1;PMS_P2;Temp;Humidity;BMP_temperature;BMP_pressure;BME280_temperature;BME280_humidity;BME280_pressure;Samples;Min_cycle;Max_cycle;Signal;HPM_P1;HPM_P2
2021/05/21 00:01:43;;;;;;;4.55;1.75;;;13.30;69.70;;;;;;5060211;28;20124;-53
2021/05/21 00:04:09;;;;;;;3.97;1.50;;;13.30;69.80;;;;;;5063644;28;20432;-53
2021/05/21 00:06:35;;;;;;;7.07;1.80;;;13.20;70.10;;;;;;5047700;28;20210;-54
2021/05/21 00:09:02;;;;;;;2.95;1.60;;;13.30;70.20;;;;;;5052932;28;20041;-54
2021/05/21 00:11:28;;;;;;;4.60;1.83;;;13.20;70.10;;;;;;5069022;28;20074;-52
2021/05/21 00:13:54;;;;;;;3.47;1.67;;;13.20;70.40;;;;;;5065397;28;20040;-54
2021/05/21 00:16:20;;;;;;;4.22;1.50;;;13.20;70.50;;;;;;5069701;28;20085;-55
2021/05/21 00:18:47;;;;;;;3.58;1.50;;;13.20;70.80;;;;;;5049337;28;20040;-54
2021/05/21 00:21:13;;;;;;;2.92;1.45;;;13.20;71.10;;;;;;5060626;28;20068;-53
2021/05/21 00:23:39;;;;;;;4.53;1.60;;;13.20;71.40;;;;;;5078402;28;20066;-51
2021/05/21 00:26:05;;;;;;;6.45;1.80;;;13.20;71.70;;;;;;5053239;28;20064;-53
2021/05/21 00:28:30;;;;;;;2.72;1.52;;;13.20;71.40;;;;;;5058900;28;20028;-53
2021/05/21 00:30:56;;;;;;;3.45;1.70;;;13.20;71.70;;;;;;5066283;28;20040;-53
2021/05/21 00:33:22;;;;;;;7.80;1.92;;;13.20;71.80;;;;;;5050859;28;20055;-55
2021/05/21 00:35:48;;;;;;;3.30;1.70;;;13.20;72.00;;;;;;5068785;28;20102;-56
2021/05/21 00:38:13;;;;;;;4.93;1.80;;;13.20;71.80;;;;;;5076757;28;20043;-53
2021/05/21 00:40:40;;;;;;;4.15;1.65;;;13.20;72.20;;;;;;5070117;28;20052;-53
2021/05/21 00:43:05;;;;;;;4.15;1.40;;;13.20;72.10;;;;;;5082918;28;20111;-56
2021/05/21 00:45:31;;;;;;;4.65;1.60;;;13.20;71.80;;;;;;5052648;28;20044;-56
2021/05/21 00:47:57;;;;;;;3.25;1.50;;;13.30;71.50;;;;;;5051485;28;20044;-56
2021/05/21 00:50:23;;;;;;;6.05;1.50;;;13.30;71.80;;;;;;5060946;28;20040;-56
2021/05/21 00:52:49;;;;;;;4.03;1.33;;;13.30;72.30;;;;;;5064866;28;20048;-55
2021/05/21 00:55:15;;;;;;;6.10;1.80;;;13.30;72.40;;;;;;5069527;28;20058;-56
2021/05/21 00:57:43;;;;;;;3.95;1.63;;;13.30;72.20;;;;;;5069456;28;20067;-57
2021/05/21 01:00:10;;;;;;;6.68;1.73;;;13.30;71.70;;;;;;5068565;28;20043;-56
2021/05/21 01:02:36;;;;;;;2.53;1.30;;;13.30;71.60;;;;;;5061933;28;20037;-57
2021/05/21 01:05:02;;;;;;;5.03;1.50;;;13.40;71.80;;;;;;5069695;28;20040;-55
2021/05/21 01:07:28;;;;;;;3.83;1.40;;;13.40;72.00;;;;;;5070392;28;20036;-56
2021/05/21 01:09:54;;;;;;;5.40;1.50;;;13.40;71.90;;;;;;5069475;28;20405;-56
2021/05/21 01:12:21;;;;;;;3.40;1.33;;;13.40;72.00;;;;;;5070227;28;20089;-56
2021/05/21 01:14:55;;;;;;;5.43;1.70;;;13.40;71.90;;;;;;5075150;28;20040;-56
2021/05/21 01:17:23;;;;;;;2.95;1.58;;;13.40;72.30;;;;;;5053319;28;20033;-56
2021/05/21 01:19:50;;;;;;;5.32;1.73;;;13.30;72.70;;;;;;5057035;28;20048;-56
2021/05/21 01:22:16;;;;;;;2.78;1.50;;;13.20;73.10;;;;;;5071664;28;20041;-56
2021/05/21 01:24:42;;;;;;;4.82;1.80;;;13.30;73.40;;;;;;5060174;28;20098;-56
2021/05/21 01:27:09;;;;;;;3.78;1.73;;;13.20;73.40;;;;;;5066619;28;20037;-56
2021/05/21 01:29:35;;;;;;;3.90;1.67;;;13.20;73.50;;;;;;5063240;28;20033;-57
2021/05/21 01:32:06;;;;;;;3.67;1.60;;;13.20;73.80;;;;;;5072876;28;20047;-56
2021/05/21 01:34:34;;;;;;;3.65;1.45;;;13.20;74.20;;;;;;5060711;28;20062;-57
2021/05/21 01:37:01;;;;;;;3.67;1.70;;;13.10;74.40;;;;;;5077408;28;20101;-57
2021/05/21 01:39:34;;;;;;;2.28;1.40;;;13.20;74.20;;;;;;5042121;28;20120;-57
2021/05/21 01:42:00;;;;;;;;;;;13.20;74.30;;;;;;5078335;28;20044;-56
2021/05/21 01:44:26;;;;;;;3.58;1.55;;;13.20;74.70;;;;;;5061500;28;20454;-57
2021/05/21 01:46:53;;;;;;;4.00;1.42;;;13.20;74.70;;;;;;5052926;28;20041;-58
2021/05/21 01:49:18;;;;;;;6.28;1.60;;;13.10;75.00;;;;;;5069622;28;20102;-56
2021/05/21 01:51:57;;;;;;;6.65;1.88;;;13.10;75.20;;;;;;5070969;28;20087;-57
2021/05/21 01:54:23;;;;;;;10.55;2.40;;;13.10;76.30;;;;;;5067789;28;20060;-55
2021/05/21 01:56:51;;;;;;;4.47;1.70;;;13.00;79.40;;;;;;5074325;28;20087;-57
2021/05/21 01:59:19;;;;;;;4.72;1.92;;;12.90;80.20;;;;;;5067853;28;20044;-56
2021/05/21 02:01:44;;;;;;;5.68;2.00;;;12.60;81.50;;;;;;5078371;28;20044;-56
2021/05/21 02:04:10;;;;;;;6.63;2.10;;;12.50;82.60;;;;;;5071342;28;20041;-57
2021/05/21 02:06:38;;;;;;;7.63;2.20;;;12.40;83.50;;;;;;5079859;28;20042;-57
2021/05/21 02:09:07;;;;;;;5.88;2.25;;;12.30;84.40;;;;;;5073304;28;20050;-57
2021/05/21 02:11:33;;;;;;;4.18;1.70;;;12.20;84.30;;;;;;5073096;28;20098;-56
2021/05/21 02:13:59;;;;;;;5.75;2.08;;;12.20;85.20;;;;;;5058122;28;20053;-56
2021/05/21 02:16:24;;;;;;;4.28;1.80;;;12.10;86.00;;;;;;5080063;28;20389;-56
2021/05/21 02:18:50;;;;;;;5.40;2.28;;;12.10;86.60;;;;;;5073299;28;20044;-57
2021/05/21 02:21:16;;;;;;;4.40;2.03;;;12.00;86.70;;;;;;5049530;28;20439;-56
2021/05/21 02:23:42;;;;;;;4.35;1.95;;;12.00;86.60;;;;;;5074677;28;20047;-56
2021/05/21 02:26:07;;;;;;;7.40;2.20;;;12.00;86.90;;;;;;5055223;28;20123;-57
2021/05/21 02:28:33;;;;;;;7.68;2.45;;;12.00;87.50;;;;;;5073460;28;20097;-58
2021/05/21 02:31:00;;;;;;;8.73;2.20;;;12.00;87.20;;;;;;5073490;28;20052;-58
2021/05/21 02:33:27;;;;;;;10.15;2.35;;;12.10;86.50;;;;;;5052278;28;20048;-58
2021/05/21 02:35:53;;;;;;;14.48;2.75;;;12.00;85.70;;;;;;5070108;28;20123;-57
2021/05/21 02:38:20;;;;;;;15.23;3.05;;;12.10;84.90;;;;;;5072728;28;20192;-59
2021/05/21 02:40:46;;;;;;;10.60;2.60;;;12.00;85.00;;;;;;5054670;28;20049;-56
2021/05/21 02:43:13;;;;;;;15.30;2.88;;;12.00;85.00;;;;;;5076593;28;20039;-54
2021/05/21 02:45:39;;;;;;;17.83;3.10;;;11.90;85.50;;;;;;5080692;28;20056;-56
2021/05/21 02:48:05;;;;;;;15.38;2.97;;;11.90;85.80;;;;;;5070585;28;20055;-55
2021/05/21 02:50:31;;;;;;;17.52;3.03;;;11.90;85.80;;;;;;5080238;28;20107;-54
2021/05/21 02:52:57;;;;;;;15.82;3.38;;;11.90;85.70;;;;;;5061552;28;20147;-53
2021/05/21 02:55:23;;;;;;;14.98;2.85;;;11.90;85.60;;;;;;5054064;28;20486;-55
2021/05/21 02:57:49;;;;;;;14.93;3.28;;;11.80;85.50;;;;;;5077452;28;20139;-53
2021/05/21 03:00:15;;;;;;;20.95;3.38;;;11.80;84.60;;;;;;5072614;28;20124;-54
2021/05/21 03:02:41;;;;;;;15.15;3.83;;;11.80;84.60;;;;;;5073364;28;20047;-54
2021/05/21 03:05:07;;;;;;;19.65;3.22;;;11.80;84.20;;;;;;5063247;28;20107;-54
2021/05/21 03:07:32;;;;;;;20.70;4.13;;;11.70;84.30;;;;;;5073995;28;20063;-54
2021/05/21 03:09:58;;;;;;;20.17;3.50;;;11.70;84.00;;;;;;5070151;28;20080;-52
2021/05/21 03:12:24;;;;;;;21.80;3.97;;;11.70;84.20;;;;;;5073712;28;20062;-55
2021/05/21 03:14:49;;;;;;;20.27;3.35;;;11.70;84.60;;;;;;5069309;28;20411;-57
2021/05/21 03:17:15;;;;;;;16.75;3.58;;;11.60;84.40;;;;;;5052951;28;20040;-54
2021/05/21 03:19:41;;;;;;;17.63;3.20;;;11.60;84.60;;;;;;5074921;28;20127;-58
2021/05/21 03:22:08;;;;;;;17.48;3.47;;;11.60;84.60;;;;;;5068972;28;20099;-58
2021/05/21 03:24:34;;;;;;;15.07;3.28;;;11.50;84.70;;;;;;5038926;28;20039;-58
2021/05/21 03:27:00;;;;;;;13.57;2.72;;;11.50;84.60;;;;;;5067906;28;20029;-58
2021/05/21 03:29:26;;;;;;;13.13;2.95;;;11.50;85.00;;;;;;5067126;28;20416;-56
2021/05/21 03:31:51;;;;;;;16.60;3.60;;;11.50;84.80;;;;;;5053521;28;20044;-58
2021/05/21 03:34:18;;;;;;;16.80;2.97;;;11.50;84.60;;;;;;5064300;28;20056;-58
2021/05/21 03:36:44;;;;;;;17.98;3.58;;;11.40;84.80;;;;;;5070185;28;20078;-58
2021/05/21 03:39:11;;;;;;;14.68;3.13;;;11.50;83.40;;;;;;5067256;28;20041;-58
2021/05/21 03:41:37;;;;;;;16.55;3.22;;;11.40;84.00;;;;;;5070954;28;20052;-58
2021/05/21 03:44:03;;;;;;;17.10;3.17;;;11.30;84.10;;;;;;5054334;28;20037;-57
2021/05/21 03:46:29;;;;;;;19.38;3.42;;;11.30;84.60;;;;;;5050674;28;20037;-57
2021/05/21 03:48:55;;;;;;;22.52;3.50;;;11.20;85.00;;;;;;5076375;28;20066;-57
2021/05/21 03:51:21;;;;;;;17.98;3.22;;;11.10;85.90;;;;;;5071788;28;20044;-57
2021/05/21 03:53:46;;;;;;;20.15;4.20;;;11.10;85.50;;;;;;5071594;28;20065;-57
2021/05/21 03:56:13;;;;;;;20.92;4.10;;;11.10;85.80;;;;;;5071078;28;20040;-58
2021/05/21 03:58:39;;;;;;;16.33;2.92;;;11.10;85.90;;;;;;5074646;28;20048;-57
2021/05/21 04:01:05;;;;;;;16.00;3.05;;;11.20;86.60;;;;;;5071475;28;20083;-58
2021/05/21 04:03:31;;;;;;;19.63;3.42;;;11.20;86.20;;;;;;5071247;28;20068;-56
2021/05/21 04:05:57;;;;;;;16.73;3.42;;;11.20;86.80;;;;;;5066881;28;20627;-57
2021/05/21 04:08:23;;;;;;;18.63;3.65;;;11.20;86.90;;;;;;5053320;28;20522;-57
2021/05/21 04:10:48;;;;;;;16.27;3.50;;;11.10;86.90;;;;;;5071668;28;20071;-57
2021/05/21 04:13:14;;;;;;;20.15;3.05;;;11.10;87.00;;;;;;5070285;28;20059;-57
2021/05/21 04:15:40;;;;;;;22.40;3.95;;;11.10;87.20;;;;;;5071406;28;20485;-57
2021/05/21 04:18:07;;;;;;;17.25;3.15;;;11.00;87.30;;;;;;5071114;28;20100;-57
2021/05/21 04:20:33;;;;;;;20.05;3.58;;;11.00;87.50;;;;;;5071572;28;20111;-57
2021/05/21 04:23:01;;;;;;;19.88;3.40;;;11.10;87.30;;;;;;5068461;28;20528;-56
2021/05/21 04:25:27;;;;;;;18.45;3.70;;;11.00;87.30;;;;;;5058315;28;20131;-57
2021/05/21 04:27:53;;;;;;;16.02;2.90;;;11.00;87.00;;;;;;5078931;28;20448;-57
2021/05/21 04:30:20;;;;;;;20.25;3.35;;;10.90;87.00;;;;;;5062787;28;20098;-57
2021/05/21 04:32:45;;;;;;;18.10;3.28;;;10.90;87.50;;;;;;5069558;28;20523;-57
2021/05/21 04:35:11;;;;;;;18.02;3.00;;;10.90;87.60;;;;;;5069612;28;20041;-56
2021/05/21 04:37:37;;;;;;;14.63;3.03;;;10.90;87.50;;;;;;5074722;28;20040;-57
2021/05/21 04:40:04;;;;;;;21.38;3.53;;;10.90;87.70;;;;;;5055204;28;20048;-57
2021/05/21 04:42:30;;;;;;;18.90;3.28;;;10.90;87.70;;;;;;5073112;28;20032;-57
2021/05/21 04:44:55;;;;;;;15.35;3.22;;;11.00;87.90;;;;;;5069224;28;20098;-57
2021/05/21 04:47:21;;;;;;;18.63;3.53;;;10.90;88.40;;;;;;5074547;28;20045;-57
2021/05/21 04:49:47;;;;;;;14.23;3.40;;;11.00;88.50;;;;;;5070667;28;20066;-57
2021/05/21 04:52:13;;;;;;;17.48;3.60;;;10.90;89.00;;;;;;5023207;28;20045;-57
2021/05/21 04:54:39;;;;;;;19.25;3.35;;;10.90;88.30;;;;;;5067281;28;20063;-57
2021/05/21 04:57:06;;;;;;;19.60;3.75;;;11.00;88.90;;;;;;5074231;28;20086;-57
2021/05/21 04:59:32;;;;;;;18.55;3.55;;;11.00;89.10;;;;;;5070339;28;20041;-58
2021/05/21 05:01:58;;;;;;;18.20;3.95;;;11.00;89.30;;;;;;5069892;28;20098;-58
2021/05/21 05:04:24;;;;;;;18.10;3.88;;;11.10;89.30;;;;;;5066024;28;20591;-58
2021/05/21 05:06:50;;;;;;;20.58;3.38;;;11.20;89.40;;;;;;5073536;28;20115;-57
2021/05/21 05:09:16;;;;;;;21.40;3.80;;;11.40;88.70;;;;;;5056892;28;20385;-58
2021/05/21 05:11:44;;;;;;;20.27;3.53;;;11.60;88.30;;;;;;5070473;28;20051;-58
2021/05/21 05:14:11;;;;;;;21.20;3.50;;;11.80;87.30;;;;;;5066214;28;20041;-58
2021/05/21 05:16:38;;;;;;;16.45;3.50;;;11.90;86.60;;;;;;5068080;28;20040;-58
2021/05/21 05:19:04;;;;;;;24.35;4.25;;;12.00;87.10;;;;;;5070823;28;20447;-54
2021/05/21 05:21:32;;;;;;;20.30;4.13;;;12.20;87.10;;;;;;5073163;28;20512;-54
2021/05/21 05:23:59;;;;;;;20.75;4.32;;;12.30;85.90;;;;;;5060033;28;20386;-55
2021/05/21 05:26:24;;;;;;;20.58;3.75;;;12.50;85.30;;;;;;5072960;28;20464;-57
2021/05/21 05:28:50;;;;;;;16.23;3.20;;;12.60;85.00;;;;;;5050486;28;20037;-53
2021/05/21 05:31:16;;;;;;;18.48;3.67;;;12.80;84.40;;;;;;5062386;28;20036;-53
2021/05/21 05:33:42;;;;;;;19.08;3.92;;;13.00;83.70;;;;;;5061551;28;20131;-54
2021/05/21 05:36:08;;;;;;;21.73;3.58;;;13.20;83.20;;;;;;5058673;28;20151;-54
2021/05/21 05:38:34;;;;;;;22.48;3.58;;;13.20;82.30;;;;;;5074702;28;20033;-54
2021/05/21 05:41:01;;;;;;;13.43;2.95;;;13.20;82.00;;;;;;5069681;28;20045;-55
2021/05/21 05:43:27;;;;;;;14.48;3.08;;;13.40;81.50;;;;;;5077463;28;20150;-55
2021/05/21 05:45:53;;;;;;;20.40;3.95;;;13.50;81.00;;;;;;5084297;28;20131;-56
2021/05/21 05:48:19;;;;;;;21.38;4.07;;;13.60;80.20;;;;;;5074922;28;20068;-54
2021/05/21 05:50:46;;;;;;;17.80;3.85;;;13.50;79.80;;;;;;5052018;28;20040;-57
2021/05/21 05:53:13;;;;;;;19.73;3.65;;;13.60;79.50;;;;;;5072616;28;20045;-54
2021/05/21 05:55:41;;;;;;;26.45;4.22;;;13.50;80.40;;;;;;5074435;28;20051;-54
2021/05/21 05:58:11;;;;;;;16.55;3.50;;;13.50;79.90;;;;;;5072418;28;20042;-53
2021/05/21 06:00:37;;;;;;;17.33;3.40;;;13.40;80.30;;;;;;5064124;28;20539;-54
2021/05/21 06:03:10;;;;;;;18.88;3.78;;;13.20;80.20;;;;;;5070158;28;20036;-54
2021/05/21 06:05:37;;;;;;;23.98;4.85;;;13.20;80.70;;;;;;5071954;28;20493;-54
2021/05/21 06:08:06;;;;;;;18.63;4.00;;;13.20;80.30;;;;;;5073738;28;20394;-53
2021/05/21 06:10:33;;;;;;;22.95;4.07;;;13.20;80.90;;;;;;5068403;28;20044;-55
2021/05/21 06:13:05;;;;;;;20.65;3.80;;;13.20;80.70;;;;;;5037743;28;20497;-52
2021/05/21 06:15:32;;;;;;;13.05;3.10;;;13.20;79.50;;;;;;5053861;28;20075;-54
2021/05/21 06:17:58;;;;;;;19.67;3.80;;;13.20;79.70;;;;;;5070019;28;20044;-56
2021/05/21 06:20:25;;;;;;;22.58;3.70;;;13.20;79.10;;;;;;5076462;28;20040;-54
2021/05/21 06:22:52;;;;;;;19.50;3.22;;;13.20;79.10;;;;;;5077182;28;20214;-54
2021/05/21 06:25:22;;;;;;;16.20;3.47;;;13.30;79.20;;;;;;5073674;28;20044;-57
2021/05/21 06:27:49;;;;;;;17.40;3.47;;;13.30;78.20;;;;;;5070020;28;20047;-55
2021/05/21 06:30:15;;;;;;;25.10;3.75;;;13.30;77.80;;;;;;5061350;28;20496;-55
2021/05/21 06:32:43;;;;;;;19.55;3.50;;;13.30;77.70;;;;;;5079218;28;20117;-54
2021/05/21 06:35:11;;;;;;;23.15;3.53;;;13.30;77.90;;;;;;5072817;28;20583;-55
2021/05/21 06:37:38;;;;;;;20.25;3.53;;;13.40;78.40;;;;;;5069196;28;20122;-54
2021/05/21 06:40:05;;;;;;;19.20;3.40;;;13.40;77.90;;;;;;5074359;28;20127;-57
2021/05/21 06:42:31;;;;;;;18.13;3.55;;;13.50;77.90;;;;;;5068567;28;20045;-53
2021/05/21 06:44:57;;;;;;;14.93;3.03;;;13.50;77.60;;;;;;5071498;28;20435;-53
2021/05/21 06:47:23;;;;;;;19.80;4.65;;;13.50;77.50;;;;;;5062498;28;20090;-54
2021/05/21 06:49:49;;;;;;;13.98;3.38;;;13.50;78.30;;;;;;5072927;28;20048;-52
2021/05/21 06:52:15;;;;;;;15.32;3.20;;;13.60;78.10;;;;;;5073359;28;20040;-52
2021/05/21 06:54:43;;;;;;;19.42;4.13;;;13.70;78.00;;;;;;5072314;28;20080;-55
2021/05/21 06:57:09;;;;;;;20.05;3.47;;;13.80;77.30;;;;;;5073310;28;20385;-54
2021/05/21 06:59:35;;;;;;;17.20;3.38;;;13.80;77.30;;;;;;5070854;28;20055;-56
2021/05/21 07:02:01;;;;;;;17.50;3.90;;;13.80;76.60;;;;;;5073761;28;20090;-54
2021/05/21 07:04:27;;;;;;;19.00;3.83;;;13.80;76.20;;;;;;5054498;28;20040;-56
2021/05/21 07:06:54;;;;;;;19.88;4.00;;;13.80;76.40;;;;;;5055282;28;20128;-55
2021/05/21 07:09:20;;;;;;;16.10;3.15;;;13.90;76.50;;;;;;5039716;28;20047;-57
2021/05/21 07:11:46;;;;;;;21.58;3.97;;;14.00;74.80;;;;;;5073308;28;20769;-54
2021/05/21 07:14:13;;;;;;;16.23;3.42;;;14.00;74.70;;;;;;5070272;28;20044;-53
2021/05/21 07:16:41;;;;;;;19.05;3.85;;;14.10;73.20;;;;;;5053874;28;20044;-54
2021/05/21 07:19:09;;;;;;;18.27;3.75;;;14.10;72.00;;;;;;5034430;28;20067;-55
2021/05/21 07:21:36;;;;;;;14.75;3.22;;;14.00;72.40;;;;;;5074398;28;20048;-56
2021/05/21 07:24:03;;;;;;;13.75;2.70;;;14.00;72.90;;;;;;5051364;28;20551;-57
2021/05/21 07:26:31;;;;;;;19.23;3.88;;;14.00;71.60;;;;;;5069842;28;20068;-56
2021/05/21 07:28:56;;;;;;;18.48;3.47;;;14.00;71.90;;;;;;5070520;28;20070;-53
2021/05/21 07:31:26;;;;;;;19.73;3.25;;;13.90;71.70;;;;;;5070980;28;20079;-55
2021/05/21 07:33:55;;;;;;;15.98;4.07;;;13.90;69.80;;;;;;5070756;28;20127;-54
2021/05/21 07:36:22;;;;;;;15.82;3.20;;;14.00;69.80;;;;;;5054965;28;20047;-55
2021/05/21 07:38:49;;;;;;;14.27;3.22;;;14.00;69.90;;;;;;5064838;28;20518;-57
2021/05/21 07:41:18;;;;;;;18.42;3.30;;;13.90;68.60;;;;;;5072848;28;20036;-56
2021/05/21 07:43:47;;;;;;;18.15;3.42;;;13.80;68.80;;;;;;5072043;28;20045;-56
2021/05/21 07:46:12;;;;;;;14.38;2.85;;;13.70;68.60;;;;;;5057654;28;20455;-54
2021/05/21 07:48:38;;;;;;;13.02;2.72;;;13.70;69.80;;;;;;5064077;28;20075;-55
2021/05/21 07:51:04;;;;;;;14.27;2.90;;;13.60;68.90;;;;;;5085040;28;20071;-57
2021/05/21 07:53:31;;;;;;;13.40;3.42;;;13.60;69.70;;;;;;5071370;28;20048;-54
2021/05/21 07:55:58;;;;;;;11.68;2.60;;;13.60;70.00;;;;;;5063776;28;20483;-57
2021/05/21 07:58:24;;;;;;;14.32;3.20;;;13.60;68.70;;;;;;5055421;28;20052;-57
2021/05/21 08:00:52;;;;;;;13.88;2.90;;;13.50;70.10;;;;;;5068203;28;20062;-56
2021/05/21 08:03:19;;;;;;;15.48;3.35;;;13.60;69.60;;;;;;5075619;28;20392;-55
2021/05/21 08:05:45;;;;;;;14.75;2.97;;;13.60;70.00;;;;;;5069429;28;20550;-57
2021/05/21 08:08:11;;;;;;;13.85;2.90;;;13.60;68.60;;;;;;5053762;28;20093;-55
2021/05/21 08:10:37;;;;;;;15.60;2.67;;;13.70;67.70;;;;;;5065899;28;20044;-55
2021/05/21 08:13:03;;;;;;;15.55;2.70;;;13.70;67.40;;;;;;5069773;28;20043;-54
2021/05/21 08:15:29;;;;;;;11.50;2.85;;;13.70;67.30;;;;;;5053014;28;20063;-55
2021/05/21 08:17:55;;;;;;;14.82;2.53;;;13.70;68.30;;;;;;5053445;28;20036;-56
2021/05/21 08:20:21;;;;;;;15.13;2.83;;;13.80;67.00;;;;;;5071783;28;20115;-56
2021/05/21 08:22:49;;;;;;;12.55;2.70;;;13.90;67.30;;;;;;5071164;28;20519;-55
2021/05/21 08:25:16;;;;;;;12.98;2.90;;;14.00;66.80;;;;;;5052323;28;20076;-56
2021/05/21 08:27:45;;;;;;;15.82;3.58;;;14.10;67.10;;;;;;5054003;28;20048;-57
2021/05/21 08:30:11;;;;;;;14.35;2.67;;;14.20;66.50;;;;;;5054167;28;20450;-56
2021/05/21 08:32:37;;;;;;;13.18;2.88;;;14.20;64.30;;;;;;5070821;28;20040;-55
2021/05/21 08:35:05;;;;;;;14.48;2.97;;;14.30;65.10;;;;;;5071887;28;20044;-54
2021/05/21 08:37:31;;;;;;;10.45;2.95;;;14.40;65.90;;;;;;5038963;28;20044;-56
2021/05/21 08:39:57;;;;;;;16.67;3.08;;;14.40;64.10;;;;;;5070580;28;20113;-55
2021/05/21 08:42:23;;;;;;;21.55;3.25;;;14.50;64.50;;;;;;5070107;28;20044;-57
2021/05/21 08:44:52;;;;;;;14.80;2.67;;;14.60;65.10;;;;;;5068006;28;20086;-57
2021/05/21 08:47:18;;;;;;;14.70;3.00;;;14.60;64.10;;;;;;5070335;28;20043;-55
2021/05/21 08:49:44;;;;;;;11.95;2.90;;;14.70;64.10;;;;;;5070074;28;20464;-56
2021/05/21 08:52:11;;;;;;;13.00;3.15;;;14.70;62.20;;;;;;5038652;28;20110;-55
2021/05/21 08:54:41;;;;;;;12.95;2.72;;;14.70;62.00;;;;;;5037175;28;20060;-56
2021/05/21 08:57:08;;;;;;;19.75;3.10;;;14.60;62.60;;;;;;5054674;28;20152;-57
2021/05/21 08:59:34;;;;;;;11.63;2.50;;;14.60;62.20;;;;;;5067775;28;20543;-56
2021/05/21 09:02:00;;;;;;;14.63;2.63;;;14.60;61.10;;;;;;5070966;28;20123;-57
2021/05/21 09:04:49;;;;;;;12.80;2.72;;;14.60;62.40;;;;;;5071533;28;20116;-54
2021/05/21 09:07:35;;;;;;;12.00;2.42;;;14.60;62.10;;;;;;5058703;28;20037;-55
2021/05/21 09:10:16;;;;;;;10.68;2.35;;;14.60;63.10;;;;;;5055656;28;20501;-55
2021/05/21 09:12:47;;;;;;;15.98;2.75;;;14.60;63.10;;;;;;5070266;28;20034;-57
2021/05/21 09:15:40;;;;;;;15.38;2.95;;;14.60;62.70;;;;;;5053219;28;20040;-57
2021/05/21 09:18:08;;;;;;;12.88;2.78;;;14.70;61.60;;;;;;5023607;28;20523;-55
2021/05/21 09:20:39;;;;;;;16.52;3.03;;;14.70;63.20;;;;;;5070066;28;20048;-57
2021/05/21 09:23:15;;;;;;;19.45;3.08;;;14.60;63.50;;;;;;5047181;28;20036;-55
2021/05/21 09:25:45;;;;;;;12.70;2.80;;;14.70;62.80;;;;;;5061278;28;20497;-55
2021/05/21 09:28:34;;;;;;;10.23;2.53;;;14.70;62.20;;;;;;5067775;28;20040;-55
2021/05/21 09:31:21;;;;;;;14.07;2.90;;;14.70;62.50;;;;;;5037458;28;20048;-55
2021/05/21 09:33:59;;;;;;;12.27;2.58;;;14.70;63.40;;;;;;5072122;28;20047;-56
2021/05/21 09:36:33;;;;;;;10.70;2.78;;;14.80;64.40;;;;;;5072310;28;20417;-55
2021/05/21 09:39:00;;;;;;;15.27;2.63;;;15.00;65.10;;;;;;5061039;28;20417;-57
2021/05/21 09:41:26;;;;;;;9.55;2.55;;;15.20;62.80;;;;;;5062991;28;20037;-55
2021/05/21 09:43:53;;;;;;;11.50;2.70;;;15.10;61.50;;;;;;5070732;28;20053;-53
2021/05/21 09:46:20;;;;;;;11.45;2.50;;;14.90;65.70;;;;;;5072345;28;20056;-55
2021/05/21 09:48:47;;;;;;;11.88;2.78;;;14.30;71.10;;;;;;5073192;28;20099;-54
2021/05/21 09:51:16;;;;;;;15.43;2.70;;;13.70;74.00;;;;;;5030678;28;20044;-56
2021/05/21 09:53:46;;;;;;;11.88;2.53;;;13.30;76.20;;;;;;5071794;28;20469;-55
2021/05/21 09:56:20;;;;;;;15.75;3.47;;;13.10;78.50;;;;;;5073087;28;20044;-57
2021/05/21 09:58:46;;;;;;;10.68;2.15;;;13.10;80.10;;;;;;5059417;28;20033;-55
2021/05/21 10:01:16;;;;;;;14.50;3.15;;;13.00;80.60;;;;;;5068165;28;20044;-55
2021/05/21 10:03:51;;;;;;;12.02;2.80;;;13.00;80.90;;;;;;5049269;28;20433;-55
2021/05/21 10:06:19;;;;;;;13.93;2.90;;;13.10;81.10;;;;;;5038719;28;20083;-55
2021/05/21 10:08:48;;;;;;;13.30;2.92;;;13.10;80.70;;;;;;5053954;28;20583;-55
2021/05/21 10:11:16;;;;;;;16.75;2.88;;;13.00;80.40;;;;;;5038885;28;20032;-56
2021/05/21 10:13:44;;;;;;;14.93;2.67;;;13.00;81.00;;;;;;5044916;28;20469;-57
2021/05/21 10:16:18;;;;;;;12.75;3.08;;;13.00;80.00;;;;;;5059019;28;20075;-58
2021/05/21 10:18:48;;;;;;;15.27;2.97;;;13.00;79.00;;;;;;5041196;28;20052;-58
2021/05/21 10:21:18;;;;;;;13.57;3.00;;;12.90;79.60;;;;;;5038418;28;20040;-58
2021/05/21 10:23:58;;;;;;;12.43;2.97;;;12.90;80.50;;;;;;5077626;28;20041;-59
2021/05/21 10:26:38;;;;;;;12.32;2.80;;;13.00;80.30;;;;;;5056271;28;20047;-57
2021/05/21 10:29:11;;;;;;;10.57;2.40;;;13.00;80.00;;;;;;5073843;28;20045;-57
2021/05/21 10:31:37;;;;;;;14.02;2.70;;;12.90;79.30;;;;;;5073129;28;20033;-57
2021/05/21 10:34:14;;;;;;;12.10;2.78;;;13.00;79.90;;;;;;5073263;28;20055;-58
2021/05/21 10:36:41;;;;;;;11.57;2.40;;;13.10;79.10;;;;;;5055252;28;20132;-58
2021/05/21 10:39:17;;;;;;;11.30;2.63;;;13.30;79.00;;;;;;5053109;28;20040;-58
2021/05/21 10:41:58;;;;;;;18.27;2.80;;;13.50;76.50;;;;;;5074995;28;20048;-57
2021/05/21 10:44:37;;;;;;;12.25;2.60;;;13.60;76.40;;;;;;5067482;28;20056;-57
2021/05/21 10:47:23;;;;;;;12.23;2.75;;;13.70;73.70;;;;;;5067417;28;20094;-58
2021/05/21 10:49:52;;;;;;;11.52;2.80;;;13.70;73.90;;;;;;5072966;28;20497;-57
2021/05/21 10:52:22;;;;;;;10.02;2.85;;;13.70;73.70;;;;;;5071110;28;20075;-57
2021/05/21 10:54:51;;;;;;;11.77;3.10;;;13.70;73.30;;;;;;5072872;28;20040;-57
2021/05/21 10:57:19;;;;;;;14.02;3.35;;;13.70;73.60;;;;;;5055440;28;20043;-58
2021/05/21 10:59:51;;;;;;;11.93;2.75;;;13.90;73.30;;;;;;5070919;28;20071;-57
2021/05/21 11:02:27;;;;;;;12.30;3.00;;;14.00;73.10;;;;;;5069264;28;20036;-57
2021/05/21 11:04:53;;;;;;;8.77;2.25;;;14.20;73.10;;;;;;5070359;28;20064;-57
2021/05/21 11:07:39;;;;;;;17.05;3.03;;;14.50;72.90;;;;;;5071204;28;20044;-56
2021/05/21 11:10:06;;;;;;;13.63;2.70;;;14.50;72.10;;;;;;5073151;28;20032;-57
2021/05/21 11:13:00;;;;;;;17.00;3.42;;;14.60;71.10;;;;;;5073277;28;20040;-57
2021/05/21 11:15:39;;;;;;;22.98;8.23;;;14.50;69.80;;;;;;5073384;28;20338;-58
2021/05/21 11:18:13;;;;;;;7.55;2.65;;;14.60;69.60;;;;;;5056354;28;20036;-57
2021/05/21 11:20:53;;;;;;;11.27;3.10;;;14.60;68.60;;;;;;5067053;28;20412;-57
2021/05/21 11:23:21;;;;;;;11.45;2.75;;;14.50;68.60;;;;;;5074684;28;20174;-57
2021/05/21 11:26:12;;;;;;;11.50;2.55;;;14.40;68.00;;;;;;5052576;28;20052;-57
2021/05/21 11:28:40;;;;;;;9.65;2.58;;;14.40;67.70;;;;;;5072068;28;20036;-58
2021/05/21 11:31:10;;;;;;;15.15;4.00;;;14.50;67.90;;;;;;5071221;28;20037;-58
2021/05/21 11:33:36;;;;;;;9.25;2.47;;;14.60;68.10;;;;;;5067070;28;20041;-56
2021/05/21 11:36:05;;;;;;;11.10;2.38;;;14.90;68.10;;;;;;5068576;28;20041;-57
2021/05/21 11:38:31;;;;;;;8.65;2.45;;;15.00;65.60;;;;;;5072287;28;20040;-57
2021/05/21 11:40:57;;;;;;;14.02;2.78;;;15.10;66.00;;;;;;5072158;28;20040;-56
2021/05/21 11:43:27;;;;;;;11.55;2.90;;;15.00;65.20;;;;;;5069418;28;20489;-58
2021/05/21 11:45:57;;;;;;;13.18;2.83;;;14.90;64.50;;;;;;5070907;28;20051;-58
2021/05/21 11:48:37;;;;;;;13.73;2.60;;;14.80;65.40;;;;;;5072424;28;20436;-57
2021/05/21 11:51:09;;;;;;;11.23;2.92;;;15.00;65.70;;;;;;5071931;28;20489;-57
2021/05/21 11:53:52;;;;;;;12.48;4.18;;;15.20;65.00;;;;;;5070781;28;20094;-54
2021/05/21 11:56:31;;;;;;;8.07;2.15;;;15.30;61.60;;;;;;5066397;28;20378;-56
2021/05/21 11:59:03;;;;;;;13.55;2.50;;;15.20;63.60;;;;;;5052633;28;20047;-58
2021/05/21 12:01:30;;;;;;;11.48;2.95;;;15.10;64.10;;;;;;5069941;28;20044;-54
2021/05/21 12:03:57;;;;;;;10.60;2.65;;;15.10;66.80;;;;;;5071961;28;20043;-54
2021/05/21 12:06:22;;;;;;;15.25;3.78;;;14.80;68.60;;;;;;5072975;28;20028;-52
2021/05/21 12:08:51;;;;;;;13.30;3.10;;;14.70;73.80;;;;;;5072365;28;20037;-51
2021/05/21 12:11:17;;;;;;;17.02;3.72;;;14.70;76.90;;;;;;5056745;28;20032;-53
2021/05/21 12:13:43;;;;;;;12.40;2.92;;;14.70;78.30;;;;;;5068946;28;20559;-56
2021/05/21 12:16:14;;;;;;;8.43;2.90;;;14.90;78.40;;;;;;5072335;28;20049;-53
2021/05/21 12:18:42;;;;;;;9.60;2.63;;;15.00;77.70;;;;;;5073518;28;20543;-56
2021/05/21 12:21:07;;;;;;;9.02;2.40;;;15.10;77.30;;;;;;5063997;28;20041;-54
2021/05/21 12:23:39;;;;;;;8.98;2.28;;;15.20;75.60;;;;;;5074100;28;20051;-55
2021/05/21 12:26:12;;;;;;;8.57;2.65;;;15.20;75.10;;;;;;5071169;28;20488;-54
2021/05/21 12:28:39;;;;;;;9.48;2.72;;;15.20;74.60;;;;;;5070311;28;20028;-54
2021/05/21 12:31:11;;;;;;;10.45;2.47;;;15.10;74.20;;;;;;5067145;28;20072;-54
2021/05/21 12:33:41;;;;;;;10.07;2.83;;;15.10;72.20;;;;;;5071387;28;20049;-55
2021/05/21 12:36:11;;;;;;;11.63;2.30;;;15.00;72.30;;;;;;5074501;28;20045;-55
2021/05/21 12:38:38;;;;;;;10.63;2.60;;;15.20;73.00;;;;;;5073382;28;20048;-55
2021/05/21 12:41:03;;;;;;;13.50;3.20;;;15.20;72.20;;;;;;5060916;28;20087;-55
2021/05/21 12:43:31;;;;;;;10.20;3.13;;;15.20;72.00;;;;;;5053288;28;20059;-54
2021/05/21 12:46:06;;;;;;;9.68;2.80;;;15.30;69.70;;;;;;5061164;28;20048;-54